Time;durP1;ratioP1;P1;durP2;ratioP2;P2;SDS_P1;SDS_P2;PMS_P1;PMS_P2;Temp;Humidity;BMP_temperature;BMP_pressure;BME280_temperature;BME280_humidity;BME280_pressure;Samples;Min_cycle;Max_cycle;Signal;HPM_P1;HPM_P2
2022/01/13 00:00:15;;;;;;;27.95;15.30;;;;;;;;;;5085106;28;20036;-48
2022/01/13 00:02:42;;;;;;;27.65;14.20;;;;;;;;;;5084314;28;20035;-49
2022/01/13 00:05:09;;;;;;;25.98;14.25;;;;;;;;;;5099880;28;20031;-49
2022/01/13 00:07:36;;;;;;;27.48;14.90;;;;;;;;;;5104302;28;20430;-50
2022/01/13 00:10:03;;;;;;;25.65;13.70;;;;;;;;;;5102669;28;20024;-50
2022/01/13 00:12:34;;;;;;;24.90;13.48;;;;;;;;;;5091683;28;20415;-49
2022/01/13 00:15:23;;;;;;;22.92;12.93;;;;;;;;;;5102167;28;20514;-50
2022/01/13 00:25:34;;;;;;;26.95;14.05;;;;;;;;;;5098981;28;20137;-49
2022/01/13 00:28:05;;;;;;;26.38;15.20;;;;;;;;;;5092923;28;20102;-48
2022/01/13 00:30:32;;;;;;;29.98;15.15;;;;;;;;;;5085231;28;20028;-50
2022/01/13 00:33:01;;;;;;;29.52;15.40;;;;;;;;;;5088511;28;20020;-49
2022/01/13 00:35:27;;;;;;;27.55;14.40;;;;;;;;;;5096388;28;20016;-50
2022/01/13 00:37:53;;;;;;;31.10;16.60;;;;;;;;;;5094768;28;20031;-49
2022/01/13 00:40:19;;;;;;;29.13;14.93;;;;;;;;;;5084205;28;20027;-50
2022/01/13 00:42:46;;;;;;;32.88;16.27;;;;;;;;;;5102184;28;20024;-50
2022/01/13 00:45:14;;;;;;;33.40;16.98;;;;;;;;;;5073132;28;20026;-49
2022/01/13 00:47:42;;;;;;;32.60;17.60;;;;;;;;;;5079267;28;20039;-50
2022/01/13 00:50:08;;;;;;;33.42;17.52;;;;;;;;;;5107926;28;20437;-51
2022/01/13 00:52:35;;;;;;;31.83;17.45;;;;;;;;;;5109701;28;20031;-49
2022/01/13 00:55:05;;;;;;;31.50;16.75;;;;;;;;;;5091281;28;20023;-49
2022/01/13 00:57:33;;;;;;;30.83;17.23;;;;;;;;;;5101723;28;20109;-49
2022/01/13 00:59:59;;;;;;;36.10;18.45;;;;;;;;;;5090283;28;20020;-49
2022/01/13 01:02:26;;;;;;;32.85;17.15;;;;;;;;;;5092073;28;20034;-50
2022/01/13 01:04:52;;;;;;;33.65;17.73;;;;;;;;;;5110848;28;20415;-49
2022/01/13 01:07:18;;;;;;;33.00;17.23;;;;;;;;;;5107475;28;20583;-50
2022/01/13 01:09:50;;;;;;;32.42;16.20;;;;;;;;;;5103987;28;20119;-50
2022/01/13 01:12:17;;;;;;;32.97;17.17;;;;;;;;;;5089471;28;20024;-50
2022/01/13 01:14:53;;;;;;;31.73;16.98;;;;;;;;;;5088440;28;20099;-50
2022/01/13 01:17:20;;;;;;;31.70;17.02;;;;;;;;;;5092275;28;20162;-53
2022/01/13 01:19:49;;;;;;;33.85;17.85;;;;;;;;;;5091224;28;20023;-51
2022/01/13 01:25:21;;;;;;;34.30;18.40;;;;;;;;;;5106498;28;20042;-50
2022/01/13 01:27:45;;;;;;;37.40;18.73;;;;;;;;;;5100431;28;20036;-52
2022/01/13 01:30:25;;;;;;;41.10;20.73;;;;;;;;;;5072334;28;20024;-51
2022/01/13 01:32:51;;;;;;;35.78;19.15;;;;;;;;;;5092947;28;20486;-54
2022/01/13 01:35:19;;;;;;;36.90;19.20;;;;;;;;;;5106894;28;20028;-56
2022/01/13 01:37:45;;;;;;;33.75;18.27;;;;;;;;;;5101956;28;20436;-55
2022/01/13 01:40:12;;;;;;;38.50;19.17;;;;;;;;;;5108745;28;20023;-56
2022/01/13 01:42:39;;;;;;;42.33;20.10;;;;;;;;;;5099893;28;20031;-55
2022/01/13 01:45:06;;;;;;;37.55;19.52;;;;;;;;;;5087695;28;20111;-55
2022/01/13 01:47:32;;;;;;;40.08;20.58;;;;;;;;;;5087170;28;20024;-56
2022/01/13 01:50:05;;;;;;;36.45;19.85;;;;;;;;;;5088259;28;20024;-56
2022/01/13 01:52:31;;;;;;;40.42;20.42;;;;;;;;;;5105627;28;20020;-57
2022/01/13 01:54:57;;;;;;;38.30;19.75;;;;;;;;;;5095519;28;20031;-56
2022/01/13 01:57:25;;;;;;;40.85;21.17;;;;;;;;;;5087049;28;20517;-57
2022/01/13 01:59:52;;;;;;;42.22;21.27;;;;;;;;;;5087202;28;20024;-57
2022/01/13 02:02:20;;;;;;;41.17;19.10;;;;;;;;;;5086901;28;20032;-57
2022/01/13 02:04:46;;;;;;;35.10;19.03;;;;;;;;;;5086647;28;20032;-56
2022/01/13 02:07:13;;;;;;;37.38;19.35;;;;;;;;;;5087064;28;20419;-56
2022/01/13 02:09:42;;;;;;;36.78;18.20;;;;;;;;;;5086843;28;20032;-57
2022/01/13 02:12:11;;;;;;;35.15;18.42;;;;;;;;;;5086752;28;20027;-56
2022/01/13 02:14:58;;;;;;;33.10;17.63;;;;;;;;;;5077088;28;20440;-57
2022/01/13 02:17:27;;;;;;;35.80;17.98;;;;;;;;;;5106859;28;20491;-57
2022/01/13 02:19:54;;;;;;;30.77;16.85;;;;;;;;;;5107415;28;20023;-57
2022/01/13 02:22:21;;;;;;;32.88;16.80;;;;;;;;;;5107730;28;20020;-56
2022/01/13 02:24:47;;;;;;;30.30;16.15;;;;;;;;;;5093845;28;20024;-56
2022/01/13 02:27:13;;;;;;;26.92;14.82;;;;;;;;;;5086223;28;20016;-56
2022/01/13 02:29:39;;;;;;;28.35;15.18;;;;;;;;;;5085476;28;20384;-56
2022/01/13 02:32:05;;;;;;;26.15;14.88;;;;;;;;;;5086678;28;20031;-57
2022/01/13 02:34:32;;;;;;;27.80;14.45;;;;;;;;;;5095345;28;20083;-57
2022/01/13 02:36:59;;;;;;;27.60;15.18;;;;;;;;;;5106775;28;20478;-57
2022/01/13 02:39:29;;;;;;;27.48;14.50;;;;;;;;;;5106016;28;20036;-56
2022/01/13 02:41:56;;;;;;;26.52;14.80;;;;;;;;;;5104688;28;20039;-57
2022/01/13 02:44:24;;;;;;;23.92;13.50;;;;;;;;;;5084729;28;20042;-56
2022/01/13 02:49:19;;;;;;;27.20;14.18;;;;;;;;;;5087159;28;20028;-56
2022/01/13 02:51:47;;;;;;;29.65;15.52;;;;;;;;;;5086056;28;20417;-57
2022/01/13 02:54:13;;;;;;;28.80;14.52;;;;;;;;;;5096684;28;20027;-57
2022/01/13 02:56:39;;;;;;;26.92;14.75;;;;;;;;;;5086085;28;20032;-56
2022/01/13 02:59:06;;;;;;;28.25;15.05;;;;;;;;;;5085535;28;20073;-56
2022/01/13 03:01:34;;;;;;;29.20;15.43;;;;;;;;;;5093432;28;20490;-57
2022/01/13 03:04:04;;;;;;;27.95;14.90;;;;;;;;;;5106919;28;20132;-57
2022/01/13 03:06:34;;;;;;;29.00;15.57;;;;;;;;;;5108024;28;20026;-57
2022/01/13 03:09:00;;;;;;;24.48;13.45;;;;;;;;;;5108124;28;20020;-56
2022/01/13 03:11:37;;;;;;;25.85;12.95;;;;;;;;;;5100627;28;20055;-56
2022/01/13 03:14:10;;;;;;;25.00;13.18;;;;;;;;;;5088137;28;20621;-56
2022/01/13 03:16:40;;;;;;;22.95;12.88;;;;;;;;;;5086584;28;20028;-57
2022/01/13 03:19:06;;;;;;;22.20;12.63;;;;;;;;;;5087786;28;20031;-54
2022/01/13 03:21:32;;;;;;;24.08;12.35;;;;;;;;;;5105823;28;20032;-56
2022/01/13 03:23:58;;;;;;;22.98;12.25;;;;;;;;;;5107926;28;20031;-56
2022/01/13 03:26:25;;;;;;;23.40;12.10;;;;;;;;;;5107535;28;20034;-55
2022/01/13 03:28:52;;;;;;;20.40;11.68;;;;;;;;;;5089283;28;20487;-56
2022/01/13 03:31:22;;;;;;;23.20;12.32;;;;;;;;;;5068953;28;20103;-56
2022/01/13 03:33:48;;;;;;;22.85;12.07;;;;;;;;;;5096642;28;20028;-55
2022/01/13 03:36:14;;;;;;;22.60;12.20;;;;;;;;;;5107424;28;20039;-56
2022/01/13 03:38:41;;;;;;;23.17;11.88;;;;;;;;;;5107219;28;20430;-56
2022/01/13 03:41:07;;;;;;;21.30;11.25;;;;;;;;;;5107590;28;20038;-54
2022/01/13 03:43:36;;;;;;;18.52;11.15;;;;;;;;;;5096137;28;20020;-56
2022/01/13 03:46:02;;;;;;;20.58;12.18;;;;;;;;;;5107650;28;20508;-56
2022/01/13 03:48:28;;;;;;;22.17;12.38;;;;;;;;;;5106915;28;20015;-56
2022/01/13 03:50:54;;;;;;;22.05;11.85;;;;;;;;;;5107116;28;20257;-55
2022/01/13 03:53:23;;;;;;;21.83;11.77;;;;;;;;;;5106392;28;20467;-56
2022/01/13 03:56:08;;;;;;;21.05;11.70;;;;;;;;;;5105093;28;20028;-56
2022/01/13 03:58:46;;;;;;;19.35;10.65;;;;;;;;;;5090667;28;20026;-56
2022/01/13 04:01:30;;;;;;;18.52;10.93;;;;;;;;;;5086889;28;20123;-55
2022/01/13 04:03:57;;;;;;;17.88;10.25;;;;;;;;;;5086737;28;20032;-55
2022/01/13 04:06:23;;;;;;;19.92;10.55;;;;;;;;;;5094709;28;20367;-55
2022/01/13 04:08:49;;;;;;;18.73;10.23;;;;;;;;;;5107409;28;20061;-56
2022/01/13 04:11:34;;;;;;;18.20;10.05;;;;;;;;;;5105359;28;20035;-56
2022/01/13 04:14:02;;;;;;;20.35;11.85;;;;;;;;;;5086904;28;20024;-56
2022/01/13 04:16:36;;;;;;;20.33;11.77;;;;;;;;;;5085130;28;20499;-55
2022/01/13 04:19:07;;;;;;;22.50;12.73;;;;;;;;;;5068015;28;20755;-56
2022/01/13 04:21:34;;;;;;;23.00;13.07;;;;;;;;;;5086405;28;20041;-56
2022/01/13 04:24:01;;;;;;;24.60;13.90;;;;;;;;;;5092390;28;20092;-56
2022/01/13 04:26:29;;;;;;;24.67;14.02;;;;;;;;;;5106543;28;20027;-56
2022/01/13 04:29:18;;;;;;;23.65;13.85;;;;;;;;;;5087188;28;20108;-55
2022/01/13 04:31:45;;;;;;;25.20;14.48;;;;;;;;;;5089518;28;20020;-55
2022/01/13 04:34:11;;;;;;;23.63;13.25;;;;;;;;;;5103131;28;20491;-56
2022/01/13 04:36:38;;;;;;;23.65;14.05;;;;;;;;;;5106626;28;20561;-55
2022/01/13 04:39:04;;;;;;;23.77;13.23;;;;;;;;;;5106421;28;20023;-57
2022/01/13 04:41:34;;;;;;;25.70;14.52;;;;;;;;;;5104874;28;20052;-56
2022/01/13 04:44:01;;;;;;;26.65;14.00;;;;;;;;;;5090629;28;20038;-56
2022/01/13 04:46:27;;;;;;;23.40;12.93;;;;;;;;;;5106611;28;20028;-56
2022/01/13 04:48:53;;;;;;;22.83;13.23;;;;;;;;;;5106300;28;20031;-54
2022/01/13 04:51:20;;;;;;;20.85;12.18;;;;;;;;;;5106841;28;20020;-56
2022/01/13 04:53:46;;;;;;;23.30;12.30;;;;;;;;;;5104304;28;20051;-56
2022/01/13 04:56:16;;;;;;;18.27;11.23;;;;;;;;;;5104837;28;20042;-55
2022/01/13 04:58:42;;;;;;;22.02;11.73;;;;;;;;;;5089126;28;20139;-55
2022/01/13 05:01:08;;;;;;;21.77;12.25;;;;;;;;;;5085921;28;20032;-55
2022/01/13 05:03:34;;;;;;;25.55;13.35;;;;;;;;;;5085342;28;20123;-54
2022/01/13 05:06:00;;;;;;;21.35;12.45;;;;;;;;;;5106173;28;20411;-55
2022/01/13 05:08:26;;;;;;;22.17;13.15;;;;;;;;;;5106154;28;20023;-55
2022/01/13 05:10:52;;;;;;;23.08;12.88;;;;;;;;;;5092265;28;20647;-54
2022/01/13 05:13:19;;;;;;;21.55;12.18;;;;;;;;;;5086318;28;20016;-55
2022/01/13 05:15:46;;;;;;;23.38;13.98;;;;;;;;;;5088852;28;20101;-55
2022/01/13 05:18:19;;;;;;;21.23;12.30;;;;;;;;;;5088504;28;20482;-55
2022/01/13 05:20:56;;;;;;;24.13;14.02;;;;;;;;;;5107346;28;20028;-54
2022/01/13 05:23:22;;;;;;;23.70;12.93;;;;;;;;;;5109663;28;20023;-55
2022/01/13 05:25:48;;;;;;;23.40;14.10;;;;;;;;;;5108494;28;20031;-52
2022/01/13 05:28:14;;;;;;;21.83;12.95;;;;;;;;;;5096284;28;20800;-53
2022/01/13 05:30:41;;;;;;;22.85;13.20;;;;;;;;;;5089436;28;20028;-54
2022/01/13 05:33:07;;;;;;;22.80;13.57;;;;;;;;;;5089415;28;20119;-55
2022/01/13 05:35:36;;;;;;;23.25;13.57;;;;;;;;;;5104143;28;20395;-55
2022/01/13 05:38:02;;;;;;;26.95;14.30;;;;;;;;;;5109612;28;20048;-54
2022/01/13 05:40:28;;;;;;;23.00;14.10;;;;;;;;;;5095503;28;20114;-55
2022/01/13 05:42:54;;;;;;;24.23;13.77;;;;;;;;;;5088702;28;20499;-54
2022/01/13 05:45:28;;;;;;;21.60;12.88;;;;;;;;;;5071247;28;20985;-54
2022/01/13 05:47:54;;;;;;;23.20;12.77;;;;;;;;;;5101918;28;20041;-53
2022/01/13 05:50:20;;;;;;;26.00;14.82;;;;;;;;;;5109474;28;20518;-54
2022/01/13 05:52:46;;;;;;;26.10;15.63;;;;;;;;;;5109494;28;20031;-54
2022/01/13 05:55:13;;;;;;;25.48;14.10;;;;;;;;;;5108997;28;20030;-54
2022/01/13 05:57:39;;;;;;;25.48;14.10;;;;;;;;;;5100957;28;20027;-52
2022/01/13 06:00:06;;;;;;;21.88;13.35;;;;;;;;;;5088578;28;20025;-51
2022/01/13 06:02:32;;;;;;;24.30;13.27;;;;;;;;;;5109535;28;20036;-55
2022/01/13 06:04:58;;;;;;;24.17;13.20;;;;;;;;;;5090727;28;20513;-54
2022/01/13 06:07:24;;;;;;;22.70;12.48;;;;;;;;;;5109004;28;20115;-52
2022/01/13 06:09:50;;;;;;;21.75;12.68;;;;;;;;;;5109523;28;20106;-54
2022/01/13 06:12:19;;;;;;;22.13;12.57;;;;;;;;;;5104199;28;20506;-53
2022/01/13 06:14:45;;;;;;;19.50;11.43;;;;;;;;;;5087788;28;20024;-51
2022/01/13 06:17:11;;;;;;;18.65;10.90;;;;;;;;;;5105781;28;20039;-52
2022/01/13 06:19:37;;;;;;;19.77;11.50;;;;;;;;;;5108846;28;20628;-54
2022/01/13 06:22:03;;;;;;;20.65;11.50;;;;;;;;;;5108671;28;20034;-54
2022/01/13 06:24:30;;;;;;;18.55;11.18;;;;;;;;;;5107831;28;20036;-53
2022/01/13 06:26:56;;;;;;;19.40;11.45;;;;;;;;;;5106363;28;20114;-52
2022/01/13 06:29:22;;;;;;;19.25;10.73;;;;;;;;;;5094759;28;20032;-53
2022/01/13 06:31:48;;;;;;;20.50;10.98;;;;;;;;;;5091068;28;20486;-53
2022/01/13 06:34:14;;;;;;;18.75;11.73;;;;;;;;;;5107140;28;20406;-52
2022/01/13 06:36:40;;;;;;;18.50;11.32;;;;;;;;;;5108243;28;20609;-52
2022/01/13 06:39:06;;;;;;;20.92;12.27;;;;;;;;;;5088086;28;20020;-55
2022/01/13 06:41:38;;;;;;;20.38;12.35;;;;;;;;;;5088034;28;20652;-52
2022/01/13 06:44:05;;;;;;;20.95;11.65;;;;;;;;;;5086244;28;20123;-52
2022/01/13 06:46:32;;;;;;;20.40;11.63;;;;;;;;;;5087782;28;20024;-53
2022/01/13 06:48:58;;;;;;;19.20;10.95;;;;;;;;;;5069558;28;20051;-54
2022/01/13 06:51:24;;;;;;;21.63;12.40;;;;;;;;;;5088138;28;20454;-51
2022/01/13 06:53:50;;;;;;;20.95;11.63;;;;;;;;;;5107639;28;20030;-54
2022/01/13 06:56:17;;;;;;;20.20;11.57;;;;;;;;;;5108713;28;20028;-53
2022/01/13 06:58:45;;;;;;;18.73;10.98;;;;;;;;;;5090356;28;20074;-53
2022/01/13 07:01:11;;;;;;;18.40;10.32;;;;;;;;;;5086473;28;20028;-52
2022/01/13 07:03:37;;;;;;;19.80;11.40;;;;;;;;;;5095401;28;20391;-56
2022/01/13 07:06:03;;;;;;;21.08;11.02;;;;;;;;;;5083777;28;20056;-54
2022/01/13 07:08:29;;;;;;;17.98;11.02;;;;;;;;;;5087488;28;20032;-54
2022/01/13 07:10:57;;;;;;;20.05;11.18;;;;;;;;;;5087332;28;20066;-54
2022/01/13 07:13:23;;;;;;;20.48;11.55;;;;;;;;;;5086844;28;20089;-54
2022/01/13 07:15:49;;;;;;;17.80;10.45;;;;;;;;;;5079783;28;20032;-51
2022/01/13 07:18:15;;;;;;;16.65;9.55;;;;;;;;;;5092122;28;20050;-54
2022/01/13 07:20:42;;;;;;;19.35;11.90;;;;;;;;;;5092512;28;20059;-54
2022/01/13 07:23:09;;;;;;;19.25;10.85;;;;;;;;;;5086928;28;20028;-53
2022/01/13 07:25:35;;;;;;;17.02;10.48;;;;;;;;;;5087272;28;20608;-53
2022/01/13 07:28:01;;;;;;;18.42;10.85;;;;;;;;;;5094422;28;20483;-54
2022/01/13 07:30:27;;;;;;;14.80;8.80;;;;;;;;;;5085294;28;20512;-53
2022/01/13 07:32:53;;;;;;;16.27;9.65;;;;;;;;;;5086813;28;20058;-54
2022/01/13 07:35:19;;;;;;;14.00;8.95;;;;;;;;;;5087317;28;20483;-53
2022/01/13 07:37:45;;;;;;;17.52;10.35;;;;;;;;;;5086977;28;20514;-53
2022/01/13 07:40:15;;;;;;;16.08;10.07;;;;;;;;;;5086125;28;20237;-53
2022/01/13 07:42:46;;;;;;;14.68;9.05;;;;;;;;;;5086360;28;20391;-53
2022/01/13 07:45:13;;;;;;;19.52;10.45;;;;;;;;;;5088009;28;20027;-51
2022/01/13 07:47:39;;;;;;;22.38;11.95;;;;;;;;;;5105917;28;20602;-55
2022/01/13 07:50:06;;;;;;;18.13;10.93;;;;;;;;;;5090753;28;20059;-53
2022/01/13 07:52:32;;;;;;;19.25;11.45;;;;;;;;;;5103526;28;20031;-54
2022/01/13 07:54:58;;;;;;;29.33;14.23;;;;;;;;;;5105703;28;20076;-53
2022/01/13 07:57:24;;;;;;;23.63;12.50;;;;;;;;;;5100531;28;20436;-54
2022/01/13 07:59:52;;;;;;;23.15;12.57;;;;;;;;;;5084906;28;20032;-54
2022/01/13 08:02:19;;;;;;;22.65;13.07;;;;;;;;;;5086402;28;20012;-54
2022/01/13 08:04:45;;;;;;;23.02;13.55;;;;;;;;;;5066246;28;20640;-54
2022/01/13 08:07:11;;;;;;;23.38;13.35;;;;;;;;;;5094512;28;20137;-55
2022/01/13 08:09:37;;;;;;;23.98;13.15;;;;;;;;;;5106319;28;20055;-54
2022/01/13 08:12:03;;;;;;;24.17;13.48;;;;;;;;;;5078042;28;20039;-56
2022/01/13 08:14:29;;;;;;;24.73;13.38;;;;;;;;;;5087684;28;20495;-53
2022/01/13 08:16:59;;;;;;;25.23;13.85;;;;;;;;;;5087184;28;20521;-54
2022/01/13 08:22:10;;;;;;;25.05;14.30;;;;;;;;;;5093190;28;20137;-54
2022/01/13 08:24:36;;;;;;;25.85;13.48;;;;;;;;;;5087931;28;20039;-53
2022/01/13 08:27:02;;;;;;;23.67;13.20;;;;;;;;;;5085634;28;20026;-54
2022/01/13 08:29:28;;;;;;;21.98;12.88;;;;;;;;;;5085757;28;20020;-54
2022/01/13 08:31:54;;;;;;;22.50;12.75;;;;;;;;;;5086179;28;20035;-54
2022/01/13 08:34:20;;;;;;;23.17;13.43;;;;;;;;;;5087123;28;20531;-55
2022/01/13 08:36:47;;;;;;;23.27;14.10;;;;;;;;;;5086873;28;20028;-54
2022/01/13 08:39:13;;;;;;;24.20;13.23;;;;;;;;;;5107144;28;20040;-52
2022/01/13 08:41:40;;;;;;;22.83;13.10;;;;;;;;;;5104713;28;20079;-56
2022/01/13 08:44:06;;;;;;;23.45;13.40;;;;;;;;;;5086314;28;20479;-54
2022/01/13 08:46:32;;;;;;;23.85;13.27;;;;;;;;;;5087040;28;20043;-53
2022/01/13 08:48:58;;;;;;;23.05;13.57;;;;;;;;;;5086709;28;20070;-55
2022/01/13 08:51:24;;;;;;;21.38;12.52;;;;;;;;;;5086877;28;20032;-54
2022/01/13 08:53:50;;;;;;;24.45;13.07;;;;;;;;;;5091786;28;20471;-55
2022/01/13 08:56:17;;;;;;;23.75;12.85;;;;;;;;;;5100400;28;20027;-55
2022/01/13 08:58:43;;;;;;;22.15;12.93;;;;;;;;;;5093789;28;20038;-54
2022/01/13 09:01:09;;;;;;;22.02;12.90;;;;;;;;;;5090666;28;20031;-54
2022/01/13 09:03:36;;;;;;;21.63;12.57;;;;;;;;;;5090707;28;20372;-54
2022/01/13 09:06:02;;;;;;;24.75;14.27;;;;;;;;;;5090584;28;20020;-56
2022/01/13 09:08:28;;;;;;;22.50;12.52;;;;;;;;;;5090722;28;20546;-54
2022/01/13 09:10:55;;;;;;;22.27;12.23;;;;;;;;;;5082333;28;20032;-54
2022/01/13 09:13:21;;;;;;;22.15;12.95;;;;;;;;;;5080314;28;20271;-55
2022/01/13 09:15:52;;;;;;;24.13;13.10;;;;;;;;;;5089819;28;20036;-55
2022/01/13 09:18:31;;;;;;;28.10;14.00;;;;;;;;;;5108491;28;20030;-54
2022/01/13 09:20:58;;;;;;;26.83;13.60;;;;;;;;;;5110671;28;20027;-53
2022/01/13 09:23:24;;;;;;;29.25;14.90;;;;;;;;;;5110632;28;20833;-54
2022/01/13 09:25:50;;;;;;;28.27;13.93;;;;;;;;;;5109643;28;20035;-54
2022/01/13 09:28:16;;;;;;;35.35;15.98;;;;;;;;;;5097143;28;20024;-54
2022/01/13 09:30:43;;;;;;;46.58;18.38;;;;;;;;;;5088656;28;20055;-50
2022/01/13 09:33:09;;;;;;;41.55;17.48;;;;;;;;;;5090493;28;20043;-56
2022/01/13 09:35:35;;;;;;;39.58;17.45;;;;;;;;;;5100625;28;20055;-47
2022/01/13 09:38:02;;;;;;;42.78;17.23;;;;;;;;;;5090105;28;20028;-53
2022/01/13 09:40:28;;;;;;;35.92;15.30;;;;;;;;;;5091405;28;20536;-50
2022/01/13 09:42:55;;;;;;;35.78;16.33;;;;;;;;;;5087203;28;20815;-51
2022/01/13 09:45:22;;;;;;;40.17;15.82;;;;;;;;;;5088215;28;20103;-50
2022/01/13 09:47:49;;;;;;;37.70;15.75;;;;;;;;;;5090954;28;20130;-50
2022/01/13 09:50:18;;;;;;;34.55;16.17;;;;;;;;;;5089758;28;20054;-54
2022/01/13 09:52:44;;;;;;;33.97;15.30;;;;;;;;;;5096684;28;20063;-53
2022/01/13 09:55:11;;;;;;;30.15;13.98;;;;;;;;;;5079610;28;20021;-52
2022/01/13 09:57:40;;;;;;;30.17;14.02;;;;;;;;;;5085405;28;20372;-49
2022/01/13 10:00:07;;;;;;;28.05;13.82;;;;;;;;;;5100735;28;20031;-53
2022/01/13 10:02:33;;;;;;;24.38;13.55;;;;;;;;;;5107574;28;20028;-51
2022/01/13 10:04:59;;;;;;;25.52;13.63;;;;;;;;;;5107074;28;20486;-51
2022/01/13 10:07:38;;;;;;;23.50;12.75;;;;;;;;;;5109696;28;20520;-53
2022/01/13 10:10:06;;;;;;;24.17;13.13;;;;;;;;;;5101770;28;20401;-52
2022/01/13 10:12:37;;;;;;;24.75;13.60;;;;;;;;;;5082827;28;20081;-54
2022/01/13 10:17:44;;;;;;;27.70;14.45;;;;;;;;;;5104408;28;20051;-53
2022/01/13 10:20:14;;;;;;;27.70;15.30;;;;;;;;;;5095482;28;20042;-53
2022/01/13 10:22:40;;;;;;;26.85;15.00;;;;;;;;;;5103462;28;20893;-53
2022/01/13 10:25:08;;;;;;;25.45;13.93;;;;;;;;;;5087802;28;20020;-55
2022/01/13 10:27:35;;;;;;;23.35;14.00;;;;;;;;;;5093694;28;20036;-52
2022/01/13 10:30:14;;;;;;;22.25;12.82;;;;;;;;;;5095500;28;20031;-54
2022/01/13 10:32:41;;;;;;;24.13;13.00;;;;;;;;;;5094655;28;20050;-55
2022/01/13 10:35:12;;;;;;;22.25;13.23;;;;;;;;;;5087380;28;20685;-53
2022/01/13 10:37:39;;;;;;;22.67;13.10;;;;;;;;;;5098699;28;20444;-55
2022/01/13 10:40:11;;;;;;;24.80;13.25;;;;;;;;;;5094996;28;20140;-55
2022/01/13 10:45:07;;;;;;;22.45;12.48;;;;;;;;;;5089798;28;20074;-54
2022/01/13 10:47:34;;;;;;;21.35;13.18;;;;;;;;;;5086430;28;20036;-56
2022/01/13 10:50:01;;;;;;;23.50;14.13;;;;;;;;;;5087918;28;20454;-55
2022/01/13 10:52:28;;;;;;;21.60;12.80;;;;;;;;;;5085870;28;20027;-55
2022/01/13 10:55:03;;;;;;;21.42;12.30;;;;;;;;;;5092083;28;20035;-57
2022/01/13 10:57:29;;;;;;;20.15;12.13;;;;;;;;;;5085198;28;20519;-55
2022/01/13 10:59:56;;;;;;;19.88;12.63;;;;;;;;;;5083001;28;20028;-57
2022/01/13 11:02:22;;;;;;;21.83;12.10;;;;;;;;;;5085134;28;20077;-57
2022/01/13 11:04:49;;;;;;;20.10;11.77;;;;;;;;;;5084980;28;20031;-57
2022/01/13 11:07:33;;;;;;;22.25;12.77;;;;;;;;;;5083757;28;20044;-57
2022/01/13 11:10:03;;;;;;;21.30;13.07;;;;;;;;;;5090854;28;20024;-57
2022/01/13 11:12:36;;;;;;;20.27;12.02;;;;;;;;;;5095871;28;20020;-58
2022/01/13 11:15:05;;;;;;;20.42;11.70;;;;;;;;;;5085409;28;20471;-57
2022/01/13 11:17:33;;;;;;;21.02;11.80;;;;;;;;;;5084521;28;20055;-58
2022/01/13 11:20:00;;;;;;;20.15;11.88;;;;;;;;;;5091368;28;20125;-58
2022/01/13 11:22:26;;;;;;;20.17;12.10;;;;;;;;;;5101690;28;20418;-58
2022/01/13 11:24:52;;;;;;;24.13;13.48;;;;;;;;;;5106294;28;20023;-58
2022/01/13 11:27:20;;;;;;;26.30;14.68;;;;;;;;;;5102158;28;20020;-58
2022/01/13 11:29:46;;;;;;;28.20;15.20;;;;;;;;;;5087987;28;20425;-55
2022/01/13 11:32:17;;;;;;;25.35;14.00;;;;;;;;;;5094089;28;20027;-55
2022/01/13 11:34:43;;;;;;;24.70;13.93;;;;;;;;;;5104575;28;20019;-55
2022/01/13 11:37:10;;;;;;;25.05;14.95;;;;;;;;;;5086733;28;20110;-56
2022/01/13 11:39:43;;;;;;;24.17;13.80;;;;;;;;;;5087029;28;20028;-56
2022/01/13 11:42:11;;;;;;;24.75;14.60;;;;;;;;;;5085995;28;20035;-58
2022/01/13 11:44:37;;;;;;;22.60;14.23;;;;;;;;;;5087534;28;20024;-58
2022/01/13 11:47:15;;;;;;;25.38;14.48;;;;;;;;;;5086011;28;20027;-56
2022/01/13 11:49:54;;;;;;;25.88;14.27;;;;;;;;;;5097591;28;20039;-56
2022/01/13 11:52:41;;;;;;;21.00;13.02;;;;;;;;;;5085150;28;20032;-56
2022/01/13 11:55:25;;;;;;;23.52;14.02;;;;;;;;;;5086827;28;20031;-56
2022/01/13 11:57:51;;;;;;;24.92;14.02;;;;;;;;;;5084895;28;20032;-58
2022/01/13 12:00:17;;;;;;;25.20;15.07;;;;;;;;;;5085046;28;20028;-58
2022/01/13 12:02:44;;;;;;;31.73;16.95;;;;;;;;;;5092727;28;20555;-56
2022/01/13 12:05:18;;;;;;;30.65;16.60;;;;;;;;;;5087851;28;20546;-56
2022/01/13 12:07:48;;;;;;;28.75;15.88;;;;;;;;;;5087260;28;20692;-56
2022/01/13 12:10:41;;;;;;;29.38;15.65;;;;;;;;;;5097329;28;20243;-56
2022/01/13 12:13:26;;;;;;;23.00;13.27;;;;;;;;;;5075965;28;21968;-56
2022/01/13 12:15:52;;;;;;;21.38;13.40;;;;;;;;;;5085780;28;20036;-55
2022/01/13 12:18:38;;;;;;;25.02;15.05;;;;;;;;;;5086879;28;20028;-55
2022/01/13 12:21:21;;;;;;;25.20;15.40;;;;;;;;;;5086502;28;20032;-55
2022/01/13 12:23:47;;;;;;;25.08;15.18;;;;;;;;;;5106110;28;20035;-55
2022/01/13 12:26:31;;;;;;;23.92;14.57;;;;;;;;;;5106320;28;20447;-58
2022/01/13 12:28:57;;;;;;;;;;;;;;;;;;5087765;28;20455;-55
2022/01/13 12:31:26;;;;;;;26.35;14.98;;;;;;;;;;5087940;28;19931;-53
2022/01/13 12:33:52;;;;;;;23.83;14.43;;;;;;;;;;5086172;28;20028;-58
2022/01/13 12:36:22;;;;;;;25.60;15.45;;;;;;;;;;5081983;28;20055;-54
2022/01/13 12:38:58;;;;;;;22.83;13.90;;;;;;;;;;5090854;28;20360;-51
2022/01/13 12:41:26;;;;;;;21.85;13.27;;;;;;;;;;5085944;28;20088;-53
2022/01/13 12:44:12;;;;;;;21.42;13.00;;;;;;;;;;5084282;28;20026;-53
2022/01/13 12:46:39;;;;;;;22.63;13.32;;;;;;;;;;5084772;28;20399;-53
2022/01/13 12:49:07;;;;;;;21.08;13.02;;;;;;;;;;5096760;28;20023;-53
2022/01/13 12:51:33;;;;;;;21.15;12.13;;;;;;;;;;5097710;28;20114;-53
2022/01/13 12:53:59;;;;;;;21.13;13.38;;;;;;;;;;5084358;28;20020;-53
2022/01/13 12:56:27;;;;;;;22.73;13.60;;;;;;;;;;5085845;28;20024;-52
2022/01/13 12:58:57;;;;;;;23.63;13.90;;;;;;;;;;5086105;28;20024;-52
2022/01/13 13:01:25;;;;;;;24.92;14.23;;;;;;;;;;5085761;28;20379;-52
2022/01/13 13:04:01;;;;;;;20.50;12.88;;;;;;;;;;5085268;28;20035;-52
2022/01/13 13:06:27;;;;;;;22.92;12.77;;;;;;;;;;5082388;28;20024;-53
2022/01/13 13:08:53;;;;;;;22.15;13.38;;;;;;;;;;5086737;28;20078;-53
2022/01/13 13:11:20;;;;;;;24.40;13.65;;;;;;;;;;5084482;28;20047;-53
2022/01/13 13:13:50;;;;;;;28.00;15.50;;;;;;;;;;5086697;28;20107;-53
2022/01/13 13:16:17;;;;;;;27.55;15.45;;;;;;;;;;5086751;28;20043;-53
2022/01/13 13:18:43;;;;;;;28.33;15.57;;;;;;;;;;5096747;28;20019;-50
2022/01/13 13:21:11;;;;;;;24.73;15.05;;;;;;;;;;5099256;28;20043;-52
2022/01/13 13:23:39;;;;;;;30.95;17.17;;;;;;;;;;5105241;28;20032;-51
2022/01/13 13:26:10;;;;;;;32.65;17.73;;;;;;;;;;5101583;28;20032;-52
2022/01/13 13:28:41;;;;;;;32.15;18.27;;;;;;;;;;5070164;28;20437;-49
2022/01/13 13:31:16;;;;;;;27.23;15.82;;;;;;;;;;5083944;28;20491;-52
2022/01/13 13:33:42;;;;;;;28.20;17.05;;;;;;;;;;5085211;28;20031;-49
2022/01/13 13:36:09;;;;;;;28.77;16.80;;;;;;;;;;5084510;28;20028;-51
2022/01/13 13:38:47;;;;;;;24.08;14.68;;;;;;;;;;5085993;28;20035;-51
2022/01/13 13:41:15;;;;;;;24.10;14.18;;;;;;;;;;5105132;28;20347;-50
2022/01/13 13:43:41;;;;;;;26.23;16.02;;;;;;;;;;5092121;28;20542;-52
2022/01/13 13:46:07;;;;;;;24.35;15.07;;;;;;;;;;5087915;28;20543;-50
2022/01/13 13:48:33;;;;;;;24.25;15.00;;;;;;;;;;5085570;28;20142;-49
2022/01/13 13:50:59;;;;;;;23.50;14.52;;;;;;;;;;5087766;28;20099;-51
2022/01/13 13:53:28;;;;;;;26.25;15.82;;;;;;;;;;5069707;28;20070;-52
2022/01/13 13:55:57;;;;;;;25.02;15.27;;;;;;;;;;5088711;28;20491;-50
2022/01/13 13:58:23;;;;;;;21.58;14.13;;;;;;;;;;5085757;28;20016;-53
2022/01/13 14:00:56;;;;;;;22.58;14.50;;;;;;;;;;5084276;28;20051;-52
2022/01/13 14:03:35;;;;;;;23.42;14.73;;;;;;;;;;5086095;28;20023;-49
2022/01/13 14:06:01;;;;;;;23.08;15.07;;;;;;;;;;5091892;28;20044;-52
2022/01/13 14:08:29;;;;;;;26.02;15.50;;;;;;;;;;5088251;28;20024;-51
2022/01/13 14:11:08;;;;;;;22.60;14.40;;;;;;;;;;5087214;28;20077;-50
2022/01/13 14:13:34;;;;;;;23.58;15.10;;;;;;;;;;5090725;28;20036;-51
2022/01/13 14:16:00;;;;;;;23.65;15.50;;;;;;;;;;5096096;28;20023;-49
2022/01/13 14:18:26;;;;;;;24.45;15.23;;;;;;;;;;5086739;28;20032;-51
2022/01/13 14:20:52;;;;;;;24.23;14.45;;;;;;;;;;5090723;28;20096;-52
2022/01/13 14:23:23;;;;;;;22.17;14.82;;;;;;;;;;5087896;28;20024;-52
2022/01/13 14:25:50;;;;;;;24.38;15.40;;;;;;;;;;5088039;28;20103;-48
2022/01/13 14:28:22;;;;;;;23.17;15.07;;;;;;;;;;5085769;28;20073;-51
2022/01/13 14:30:49;;;;;;;26.30;16.08;;;;;;;;;;5086655;28;20063;-51
2022/01/13 14:33:16;;;;;;;24.25;15.25;;;;;;;;;;5085885;28;20110;-51
2022/01/13 14:35:42;;;;;;;22.67;14.68;;;;;;;;;;5087593;28;20461;-51
2022/01/13 14:38:10;;;;;;;25.52;15.57;;;;;;;;;;5087240;28;20107;-51
2022/01/13 14:40:46;;;;;;;23.73;15.35;;;;;;;;;;5092205;28;20248;-52
2022/01/13 14:43:20;;;;;;;25.50;15.43;;;;;;;;;;5088923;28;20035;-49
2022/01/13 14:46:09;;;;;;;24.70;15.95;;;;;;;;;;5101383;28;20026;-51